createdAt,value
2022-12-11T00:01:28.170Z,3.97
2022-12-11T00:04:02.007Z,4.10
2022-12-11T00:06:29.233Z,3.27
2022-12-11T00:09:03.140Z,3.93
2022-12-11T00:11:30.385Z,3.77
2022-12-11T00:13:57.458Z,3.73
2022-12-11T00:18:58.260Z,3.63
2022-12-11T00:21:32.069Z,3.80
2022-12-11T00:23:59.773Z,3.90
2022-12-11T00:26:27.123Z,3.47
2022-12-11T00:29:02.105Z,3.70
2022-12-11T00:31:29.319Z,3.70
2022-12-11T00:34:03.135Z,3.70
2022-12-11T00:36:30.302Z,3.20
2022-12-11T00:38:57.872Z,3.57
2022-12-11T00:41:32.015Z,3.23
2022-12-11T00:43:59.166Z,3.63
2022-12-11T00:46:33.211Z,3.17
2022-12-11T00:49:00.353Z,3.43
2022-12-11T00:51:41.024Z,3.00
2022-12-11T00:54:14.945Z,3.93
2022-12-11T00:56:49.168Z,3.37
2022-12-11T00:59:16.331Z,4.27
2022-12-11T01:01:43.459Z,3.47
2022-12-11T01:04:17.059Z,3.47
2022-12-11T01:06:44.438Z,3.87
2022-12-11T01:09:37.140Z,3.37
2022-12-11T01:12:04.434Z,3.90
2022-12-11T01:14:38.086Z,3.30
2022-12-11T01:17:05.552Z,3.43
2022-12-11T01:19:33.313Z,3.27
2022-12-11T01:22:07.136Z,3.80
2022-12-11T01:24:34.430Z,3.27
2022-12-11T01:27:08.285Z,3.70
2022-12-11T01:29:35.495Z,3.50
2022-12-11T01:32:02.588Z,3.60
2022-12-11T01:34:37.074Z,3.37
2022-12-11T01:37:04.242Z,3.50
2022-12-11T01:39:38.297Z,3.37
2022-12-11T01:42:10.284Z,3.43
2022-12-11T01:44:37.346Z,3.43
2022-12-11T01:47:11.286Z,3.93
2022-12-11T01:49:39.480Z,3.33
2022-12-11T01:52:22.305Z,3.40
2022-12-11T01:54:55.968Z,3.67
2022-12-11T01:57:30.169Z,3.33
2022-12-11T01:59:57.554Z,3.10
2022-12-11T02:02:27.669Z,3.73
2022-12-11T02:05:01.103Z,3.80
2022-12-11T02:07:28.988Z,3.10
2022-12-11T02:10:03.009Z,2.80
2022-12-11T02:12:48.507Z,3.53
2022-12-11T02:15:27.023Z,3.07
2022-12-11T02:18:03.435Z,2.93
2022-12-11T02:20:49.017Z,3.60
2022-12-11T02:23:24.973Z,3.33
2022-12-11T02:26:11.074Z,2.80
2022-12-11T02:28:46.541Z,3.13
2022-12-11T02:31:24.231Z,3.53
2022-12-11T02:34:01.262Z,3.20
2022-12-11T02:36:36.041Z,3.50
2022-12-11T02:39:12.376Z,3.03
2022-12-11T02:41:48.223Z,3.33
2022-12-11T02:44:17.177Z,3.43
2022-12-11T02:46:45.171Z,3.73
2022-12-11T02:49:20.132Z,3.60
2022-12-11T02:51:55.453Z,3.13
2022-12-11T02:54:34.043Z,3.47
2022-12-11T02:57:04.871Z,3.13
2022-12-11T02:59:43.035Z,3.00
2022-12-11T03:02:11.804Z,3.00
2022-12-11T03:04:46.437Z,2.73
2022-12-11T03:07:18.807Z,3.30
2022-12-11T03:09:54.043Z,4.13
2022-12-11T03:12:24.192Z,3.30
2022-12-11T03:14:51.396Z,3.23
2022-12-11T03:17:27.065Z,3.23
2022-12-11T03:20:01.066Z,2.87
2022-12-11T03:22:55.060Z,3.30
2022-12-11T03:25:23.799Z,3.10
2022-12-11T03:28:10.030Z,3.10
2022-12-11T03:30:37.658Z,3.43
2022-12-11T03:33:18.256Z,3.27
2022-12-11T03:35:48.798Z,3.03
2022-12-11T03:38:31.029Z,3.90
2022-12-11T03:40:59.977Z,3.13
2022-12-11T03:43:36.130Z,3.23
2022-12-11T03:46:03.757Z,3.27
2022-12-11T03:48:40.175Z,3.40
2022-12-11T03:51:07.548Z,3.07
2022-12-11T03:53:52.067Z,2.97
2022-12-11T03:56:20.101Z,3.40
2022-12-11T03:58:47.312Z,3.80
2022-12-11T04:01:21.148Z,3.40
2022-12-11T04:03:48.451Z,3.97
2022-12-11T04:06:22.040Z,3.60
2022-12-11T04:08:49.248Z,3.10
2022-12-11T04:11:41.247Z,3.73
2022-12-11T04:14:28.233Z,3.57
2022-12-11T04:17:02.168Z,3.87
2022-12-11T04:19:55.740Z,3.23
2022-12-11T04:22:48.210Z,3.23
2022-12-11T04:25:15.360Z,3.23
2022-12-11T04:27:58.175Z,3.50
2022-12-11T04:30:30.807Z,3.17
2022-12-11T04:33:08.186Z,2.93
2022-12-11T04:35:35.344Z,3.50
2022-12-11T04:38:02.434Z,3.77
2022-12-11T04:40:36.047Z,3.07
2022-12-11T04:43:03.205Z,3.43
2022-12-11T04:45:37.244Z,3.47
2022-12-11T04:48:04.416Z,3.40
2022-12-11T04:50:31.497Z,2.97
2022-12-11T04:55:32.183Z,2.67
2022-12-11T04:57:59.301Z,3.33
2022-12-11T05:00:34.022Z,3.30
2022-12-11T05:03:01.264Z,3.30
2022-12-11T05:05:35.150Z,3.20
2022-12-11T05:08:02.356Z,3.10
2022-12-11T05:10:29.494Z,3.20
2022-12-11T05:15:30.348Z,3.27
2022-12-11T05:17:57.420Z,2.73
2022-12-11T05:22:58.242Z,2.70
2022-12-11T05:25:32.141Z,3.30
2022-12-11T05:27:59.303Z,2.63
2022-12-11T05:30:26.518Z,3.33
2022-12-11T05:33:00.030Z,2.80
2022-12-11T05:35:34.714Z,3.23
2022-12-11T05:38:08.198Z,3.13
2022-12-11T05:40:35.321Z,3.13
2022-12-11T05:45:36.152Z,2.77
2022-12-11T05:48:03.425Z,3.27
2022-12-11T05:50:30.540Z,2.90
2022-12-11T05:55:31.185Z,3.00
2022-12-11T06:00:36.037Z,2.57
2022-12-11T06:03:03.551Z,2.90
2022-12-11T06:05:37.309Z,2.97
2022-12-11T06:08:04.475Z,3.30
2022-12-11T06:10:31.607Z,3.00
2022-12-11T06:15:33.029Z,2.80
2022-12-11T06:18:07.104Z,3.17
2022-12-11T06:20:34.812Z,2.93
2022-12-11T06:23:02.519Z,3.33
2022-12-11T06:25:37.032Z,3.03
2022-12-11T06:28:04.201Z,3.00
2022-12-11T06:33:06.578Z,3.20
2022-12-11T06:35:40.130Z,2.80
2022-12-11T06:38:16.068Z,3.33
2022-12-11T06:40:43.140Z,3.13
2022-12-11T06:43:10.395Z,2.90
2022-12-11T06:45:45.356Z,2.87
2022-12-11T06:48:12.536Z,3.70
2022-12-11T06:53:21.376Z,3.00
2022-12-11T06:56:01.073Z,3.50
2022-12-11T06:58:28.247Z,2.83
2022-12-11T07:03:29.043Z,2.70
2022-12-11T07:06:00.422Z,3.07
2022-12-11T07:08:47.319Z,3.43
2022-12-11T07:11:16.408Z,3.20
2022-12-11T07:13:43.613Z,3.33
2022-12-11T07:18:54.142Z,3.10
2022-12-11T07:21:21.899Z,4.00
2022-12-11T07:23:49.562Z,3.13
2022-12-11T07:26:25.226Z,3.87
2022-12-11T07:28:52.626Z,3.50
2022-12-11T07:31:21.119Z,3.30
2022-12-11T07:33:55.052Z,3.40
2022-12-11T07:36:22.220Z,3.30
2022-12-11T07:41:23.662Z,3.57
2022-12-11T07:43:50.978Z,3.33
2022-12-11T07:46:26.160Z,3.13
2022-12-11T07:48:53.409Z,3.90
2022-12-11T07:54:05.761Z,3.97
2022-12-11T07:56:43.656Z,3.70
2022-12-11T07:59:11.148Z,3.83
2022-12-11T08:04:15.650Z,3.50
2022-12-11T08:06:43.700Z,3.50
2022-12-11T08:09:21.259Z,3.77
2022-12-11T08:14:22.239Z,3.47
2022-12-11T08:16:49.529Z,3.50
2022-12-11T08:19:17.008Z,3.87
2022-12-11T08:21:51.158Z,3.20
2022-12-11T08:24:20.659Z,3.50
2022-12-11T08:26:55.181Z,3.67
2022-12-11T08:29:22.369Z,3.63
2022-12-11T08:34:24.060Z,3.50
2022-12-11T08:36:51.289Z,3.27
2022-12-11T08:41:52.402Z,3.87
2022-12-11T08:46:55.278Z,2.77
2022-12-11T08:49:22.459Z,3.90
2022-12-11T08:54:23.197Z,3.40
2022-12-11T08:56:53.538Z,3.57
2022-12-11T08:59:32.103Z,3.70
2022-12-11T09:01:59.310Z,3.83
2022-12-11T09:07:00.291Z,3.37
2022-12-11T09:12:01.680Z,3.37
2022-12-11T09:14:37.091Z,5.07
2022-12-11T09:17:05.555Z,4.10
2022-12-11T09:19:32.771Z,4.23
2022-12-11T09:24:33.288Z,6.17
2022-12-11T09:29:34.179Z,10.87
2022-12-11T09:34:35.410Z,4.10
2022-12-11T09:39:36.001Z,5.07
2022-12-11T09:42:11.752Z,5.80
2022-12-11T09:44:46.062Z,6.70
2022-12-11T09:47:20.053Z,5.10
2022-12-11T09:49:55.034Z,5.27
2022-12-11T09:52:41.087Z,6.03
2022-12-11T09:55:26.005Z,5.80
2022-12-11T09:57:59.228Z,5.73
2022-12-11T10:00:43.161Z,6.63
2022-12-11T10:03:34.563Z,5.27
2022-12-11T10:06:22.992Z,5.43
2022-12-11T10:08:59.565Z,5.78
2022-12-11T10:11:33.005Z,5.10
2022-12-11T10:14:18.892Z,5.40
2022-12-11T10:16:54.003Z,5.33
2022-12-11T10:19:30.062Z,5.47
2022-12-11T10:22:04.022Z,5.20
2022-12-11T10:25:10.034Z,5.57
2022-12-11T10:27:40.042Z,5.27
2022-12-11T10:30:24.013Z,5.70
2022-12-11T10:33:31.013Z,5.67
2022-12-11T10:36:08.652Z,6.10
2022-12-11T10:38:46.051Z,6.00
2022-12-11T10:41:19.510Z,6.40
2022-12-11T10:43:53.999Z,5.63
2022-12-11T10:46:26.531Z,6.20
2022-12-11T10:49:01.153Z,6.95
2022-12-11T10:51:31.263Z,6.20
2022-12-11T10:54:20.149Z,6.73
2022-12-11T10:56:49.197Z,6.40
2022-12-11T10:59:30.017Z,6.63
2022-12-11T11:02:04.170Z,6.10
2022-12-11T11:04:43.015Z,6.40
2022-12-11T11:07:21.185Z,6.13
2022-12-11T11:09:48.683Z,5.17
2022-12-11T11:12:34.123Z,6.57
2022-12-11T11:15:06.093Z,5.63
2022-12-11T11:17:49.785Z,6.27
2022-12-11T11:20:23.408Z,5.40
2022-12-11T11:23:02.138Z,6.10
2022-12-11T11:25:30.461Z,5.97
2022-12-11T11:28:09.138Z,6.07
2022-12-11T11:30:37.397Z,4.90
2022-12-11T11:33:25.200Z,5.70
2022-12-11T11:35:56.520Z,6.38
2022-12-11T11:38:33.334Z,6.13
2022-12-11T11:41:15.065Z,5.22
2022-12-11T11:43:54.200Z,6.13
2022-12-11T11:46:26.999Z,6.57
2022-12-11T11:49:10.206Z,6.45
2022-12-11T11:51:48.433Z,6.33
2022-12-11T11:54:40.115Z,6.43
2022-12-11T11:57:25.057Z,6.87
2022-12-11T12:00:04.284Z,6.38
2022-12-11T12:02:31.380Z,6.93
2022-12-11T12:04:58.547Z,5.93
2022-12-11T12:07:48.194Z,5.50
2022-12-11T12:10:30.015Z,6.30
2022-12-11T12:13:02.933Z,5.93
2022-12-11T12:15:37.185Z,5.93
2022-12-11T12:18:27.214Z,6.13
2022-12-11T12:21:11.274Z,5.93
2022-12-11T12:24:03.311Z,6.43
2022-12-11T12:26:39.187Z,5.20
2022-12-11T12:29:09.581Z,5.60
2022-12-11T12:32:01.197Z,6.05
2022-12-11T12:34:28.383Z,5.67
2022-12-11T12:37:12.024Z,5.55
2022-12-11T12:40:00.138Z,5.82
2022-12-11T12:42:45.108Z,5.53
2022-12-11T12:45:15.286Z,5.07
2022-12-11T12:47:53.356Z,5.40
2022-12-11T12:50:22.270Z,4.97
2022-12-11T12:52:56.259Z,4.70
2022-12-11T12:55:32.029Z,4.22
2022-12-11T12:58:07.237Z,4.38
2022-12-11T13:00:36.594Z,4.55
2022-12-11T13:03:33.066Z,4.70
2022-12-11T13:06:01.898Z,4.60
2022-12-11T13:08:38.214Z,4.87
2022-12-11T13:11:09.866Z,4.93
2022-12-11T13:14:04.187Z,4.47
2022-12-11T13:16:41.614Z,4.43
2022-12-11T13:19:51.283Z,4.85
2022-12-11T13:22:21.934Z,4.97
2022-12-11T13:25:08.139Z,5.20
2022-12-11T13:27:42.091Z,4.83
2022-12-11T13:30:15.467Z,5.50
2022-12-11T13:32:50.234Z,6.37
2022-12-11T13:35:18.460Z,5.77
2022-12-11T13:37:46.421Z,5.87
2022-12-11T13:40:29.107Z,5.87
2022-12-11T13:42:56.301Z,5.87
2022-12-11T13:45:35.232Z,5.95
2022-12-11T13:48:02.468Z,6.07
2022-12-11T13:50:38.164Z,6.47
2022-12-11T13:53:30.025Z,6.70
2022-12-11T13:56:12.250Z,5.87
2022-12-11T13:58:40.233Z,6.77
2022-12-11T14:01:35.149Z,7.13
2022-12-11T14:04:08.075Z,6.93
2022-12-11T14:06:42.267Z,6.33
2022-12-11T14:09:10.341Z,6.67
2022-12-11T14:11:55.089Z,6.70
2022-12-11T14:14:40.990Z,5.90
2022-12-11T14:17:19.236Z,6.57
2022-12-11T14:19:47.858Z,6.03
2022-12-11T14:22:29.253Z,6.33
2022-12-11T14:24:57.708Z,6.73
2022-12-11T14:27:26.223Z,5.70
2022-12-11T14:30:00.627Z,5.93
2022-12-11T14:32:39.034Z,6.23
2022-12-11T14:35:14.422Z,7.00
2022-12-11T14:37:41.947Z,6.23
2022-12-11T14:40:17.707Z,6.23
2022-12-11T14:42:46.605Z,5.97
2022-12-11T14:45:28.504Z,6.53
2022-12-11T14:47:55.836Z,6.20
2022-12-11T14:52:58.715Z,5.70
2022-12-11T14:55:41.112Z,6.43
2022-12-11T14:58:15.464Z,5.83
2022-12-11T15:00:49.128Z,6.10
2022-12-11T15:03:19.407Z,6.17
2022-12-11T15:06:03.099Z,6.87
2022-12-11T15:08:34.560Z,6.60
2022-12-11T15:11:11.254Z,6.43
2022-12-11T15:13:40.339Z,5.27
2022-12-11T15:16:08.454Z,5.77
2022-12-11T15:18:46.318Z,6.40
2022-12-11T15:23:47.488Z,5.87
2022-12-11T15:28:48.265Z,6.10
2022-12-11T15:31:25.100Z,6.63
2022-12-11T15:33:59.232Z,6.30
2022-12-11T15:36:31.127Z,6.00
2022-12-11T15:38:58.717Z,6.63
2022-12-11T15:41:33.140Z,6.17
2022-12-11T15:44:01.698Z,6.43
2022-12-11T15:46:35.416Z,6.90
2022-12-11T15:49:02.989Z,6.70
2022-12-11T15:51:30.198Z,6.90
2022-12-11T15:56:38.090Z,6.03
2022-12-11T15:59:13.225Z,6.63
2022-12-11T16:01:40.548Z,5.93
2022-12-11T16:04:14.275Z,5.73
2022-12-11T16:06:45.273Z,6.77
2022-12-11T16:09:12.551Z,6.83
2022-12-11T16:14:13.518Z,6.60
2022-12-11T16:19:20.460Z,6.53
2022-12-11T16:21:47.590Z,6.90
2022-12-11T16:24:21.279Z,6.30
2022-12-11T16:26:48.444Z,6.80
2022-12-11T16:31:49.243Z,6.70
2022-12-11T16:34:16.676Z,6.53
2022-12-11T16:36:51.341Z,6.13
2022-12-11T16:39:18.584Z,6.40
2022-12-11T16:44:19.341Z,6.13
2022-12-11T16:46:46.926Z,6.37
2022-12-11T16:49:14.528Z,6.10
2022-12-11T16:51:48.362Z,6.57
2022-12-11T16:54:22.115Z,6.80
2022-12-11T16:57:02.238Z,5.70
2022-12-11T16:59:35.149Z,6.47
2022-12-11T17:02:11.289Z,5.73
2022-12-11T17:04:39.037Z,6.70
2022-12-11T17:07:06.646Z,5.73
2022-12-11T17:09:41.123Z,6.30
2022-12-11T17:12:08.602Z,6.37
2022-12-11T17:14:43.329Z,6.17
2022-12-11T17:17:10.486Z,5.63
2022-12-11T17:19:37.558Z,5.25
2022-12-11T17:22:11.135Z,5.45
2022-12-11T17:24:38.469Z,5.27
2022-12-11T17:29:39.506Z,4.73
2022-12-11T17:32:06.870Z,5.45
2022-12-11T17:34:40.189Z,5.30
2022-12-11T17:37:07.503Z,5.47
2022-12-11T17:42:08.872Z,4.97
2022-12-11T17:44:37.095Z,4.67
2022-12-11T17:47:11.467Z,5.07
2022-12-11T17:49:51.148Z,4.93
2022-12-11T17:52:28.426Z,5.33
2022-12-11T17:55:07.098Z,4.30
2022-12-11T17:57:41.182Z,4.87
2022-12-11T18:00:15.094Z,5.13
2022-12-11T18:02:42.347Z,4.93
2022-12-11T18:07:43.547Z,4.90
2022-12-11T18:12:44.330Z,4.80
